createdAt,value
2018-06-20T00:01:41.835Z,15.10
2018-06-20T00:04:16.504Z,15.14
2018-06-20T00:06:49.548Z,15.04
2018-06-20T00:09:22.032Z,14.95
2018-06-20T00:11:54.712Z,14.83
2018-06-20T00:14:27.291Z,14.82
2018-06-20T00:16:59.751Z,14.77
2018-06-20T00:19:33.300Z,14.77
2018-06-20T00:22:06.348Z,14.73
2018-06-20T00:24:39.049Z,14.71
2018-06-20T00:27:11.672Z,14.66
2018-06-20T00:29:44.723Z,14.64
2018-06-20T00:34:54.092Z,14.74
2018-06-20T00:37:28.097Z,14.69
2018-06-20T00:40:01.179Z,14.62
2018-06-20T00:42:37.527Z,14.62
2018-06-20T00:45:11.031Z,14.64
2018-06-20T00:47:44.624Z,14.65
2018-06-20T00:50:16.492Z,14.64
2018-06-20T00:52:49.156Z,14.61
2018-06-20T00:55:23.044Z,14.59
2018-06-20T00:57:55.188Z,14.54
2018-06-20T01:00:27.461Z,14.67
2018-06-20T01:03:01.608Z,14.54
2018-06-20T01:05:34.024Z,14.63
2018-06-20T01:08:07.075Z,14.70
2018-06-20T01:10:40.196Z,14.50
2018-06-20T01:13:12.414Z,14.42
2018-06-20T01:15:44.881Z,14.35
2018-06-20T01:18:13.926Z,14.31
2018-06-20T01:20:42.975Z,14.28
2018-06-20T01:25:48.304Z,14.34
2018-06-20T01:28:18.514Z,14.43
2018-06-20T01:30:47.720Z,14.29
2018-06-20T01:33:16.776Z,14.20
2018-06-20T01:35:45.815Z,14.11
2018-06-20T01:38:16.097Z,14.05
2018-06-20T01:40:45.159Z,13.99
2018-06-20T01:45:49.940Z,14.09
2018-06-20T01:48:19.039Z,14.18
2018-06-20T01:50:48.221Z,14.00
2018-06-20T01:53:18.713Z,13.91
2018-06-20T01:55:47.857Z,13.89
2018-06-20T02:00:52.605Z,14.01
2018-06-20T02:03:21.673Z,14.12
2018-06-20T02:05:50.725Z,13.97
2018-06-20T02:14:11.104Z,13.86
2018-06-20T02:16:40.292Z,13.76
2018-06-20T02:21:45.048Z,13.84
2018-06-20T02:26:49.801Z,13.84
2018-06-20T02:29:18.888Z,13.94
2018-06-20T02:31:48.971Z,14.00
2018-06-20T02:36:54.127Z,13.85
2018-06-20T02:39:23.164Z,13.70
2018-06-20T02:41:52.215Z,13.61
2018-06-20T02:44:22.544Z,13.55
2018-06-20T02:46:51.615Z,13.52
2018-06-20T02:49:21.596Z,13.65
2018-06-20T02:51:50.702Z,13.56
2018-06-20T02:54:20.825Z,13.51
2018-06-20T02:56:49.894Z,13.44
2018-06-20T03:01:54.728Z,13.51
2018-06-20T03:04:23.776Z,13.55
2018-06-20T03:06:52.825Z,13.61
2018-06-20T03:11:57.659Z,13.40
2018-06-20T03:14:27.151Z,13.45
2018-06-20T03:16:56.205Z,13.34
2018-06-20T03:19:25.294Z,13.29
2018-06-20T03:21:54.518Z,13.20
2018-06-20T03:24:23.875Z,13.15
2018-06-20T03:26:52.938Z,13.09
2018-06-20T03:29:22.007Z,13.11
2018-06-20T03:31:51.419Z,13.09
2018-06-20T03:34:20.457Z,13.19
2018-06-20T03:36:49.520Z,13.16
2018-06-20T03:39:19.519Z,13.13
2018-06-20T03:41:49.027Z,13.10
2018-06-20T03:44:19.084Z,13.13
2018-06-20T03:46:48.193Z,13.16
2018-06-20T03:49:17.482Z,13.17
2018-06-20T03:51:46.594Z,13.10
2018-06-20T03:54:15.617Z,13.21
2018-06-20T03:56:44.677Z,13.37
2018-06-20T03:59:14.431Z,13.32
2018-06-20T04:01:43.523Z,13.31
2018-06-20T04:04:12.577Z,13.36
2018-06-20T04:06:41.816Z,13.40
2018-06-20T04:09:10.974Z,13.62
2018-06-20T04:11:40.018Z,13.57
2018-06-20T04:14:09.062Z,13.57
2018-06-20T04:19:13.888Z,13.82
2018-06-20T04:21:43.200Z,13.99
2018-06-20T04:24:12.254Z,14.08
2018-06-20T04:26:41.323Z,14.02
2018-06-20T04:29:10.469Z,14.04
2018-06-20T04:31:39.557Z,14.23
2018-06-20T04:34:09.021Z,14.27
2018-06-20T04:39:13.962Z,14.54
2018-06-20T04:41:43.340Z,14.56
2018-06-20T04:44:12.621Z,14.62
2018-06-20T04:46:41.678Z,14.71
2018-06-20T04:49:10.746Z,14.80
2018-06-20T04:54:15.506Z,15.15
2018-06-20T04:56:48.465Z,15.24
2018-06-20T04:59:23.209Z,15.38
2018-06-20T05:01:58.692Z,15.53
2018-06-20T05:04:37.239Z,15.71
2018-06-20T05:07:12.478Z,15.77
2018-06-20T05:12:21.856Z,16.09
2018-06-20T05:14:54.150Z,16.16
2018-06-20T05:20:02.574Z,16.53
2018-06-20T05:22:37.564Z,16.62
2018-06-20T05:27:46.795Z,16.99
2018-06-20T05:30:20.208Z,17.21
2018-06-20T05:32:52.853Z,17.21
2018-06-20T05:35:24.958Z,17.30
2018-06-20T05:37:57.490Z,17.41
2018-06-20T05:43:05.980Z,17.83
2018-06-20T05:48:20.723Z,18.07
2018-06-20T05:50:52.239Z,18.10
2018-06-20T05:53:26.140Z,18.16
2018-06-20T05:55:58.368Z,18.19
2018-06-20T06:01:07.522Z,18.54
2018-06-20T06:06:28.781Z,18.82
2018-06-20T06:11:41.909Z,19.09
2018-06-20T06:16:54.129Z,19.30
2018-06-20T06:19:27.044Z,19.52
2018-06-20T06:22:00.105Z,19.60
2018-06-20T06:24:33.167Z,19.85
2018-06-20T06:32:24.912Z,20.31
2018-06-20T06:34:57.596Z,20.34
2018-06-20T06:37:32.603Z,20.38
2018-06-20T06:40:05.900Z,20.50
2018-06-20T06:45:19.737Z,20.90
2018-06-20T06:47:52.376Z,21.01
2018-06-20T06:50:27.654Z,21.14
2018-06-20T06:53:01.282Z,21.22
2018-06-20T06:55:37.552Z,21.37
2018-06-20T06:58:10.717Z,21.41
2018-06-20T07:00:43.847Z,21.48
2018-06-20T07:03:16.520Z,21.77
2018-06-20T07:05:49.279Z,21.90
2018-06-20T07:08:20.771Z,21.98
2018-06-20T07:10:54.065Z,22.02
2018-06-20T07:13:30.594Z,22.14
2018-06-20T07:16:02.710Z,22.30
2018-06-20T07:21:17.147Z,22.34
2018-06-20T07:23:50.540Z,22.47
2018-06-20T07:28:59.412Z,22.75
2018-06-20T07:31:30.956Z,22.78
2018-06-20T07:34:03.182Z,22.90
2018-06-20T07:41:49.567Z,23.34
2018-06-20T07:44:21.598Z,23.50
2018-06-20T07:46:53.498Z,23.49
2018-06-20T07:49:34.252Z,23.52
2018-06-20T07:52:06.923Z,23.74
2018-06-20T07:54:40.152Z,23.90
2018-06-20T07:57:15.312Z,24.02
2018-06-20T07:59:51.629Z,24.00
2018-06-20T08:15:08.540Z,24.56
2018-06-20T08:17:51.119Z,24.67
2018-06-20T08:20:27.954Z,24.85
2018-06-20T08:23:01.555Z,24.89
2018-06-20T08:25:37.332Z,25.03
2018-06-20T08:28:09.413Z,25.21
2018-06-20T08:30:51.279Z,25.22
2018-06-20T08:33:24.328Z,25.03
2018-06-20T08:35:56.706Z,25.21
2018-06-20T08:41:06.177Z,25.51
2018-06-20T08:43:50.664Z,25.71
2018-06-20T08:46:24.868Z,25.89
2018-06-20T08:48:53.897Z,26.31
2018-06-20T08:51:25.069Z,26.23
2018-06-20T08:53:54.326Z,26.13
2018-06-20T08:56:23.357Z,26.33
2018-06-20T08:58:52.418Z,26.32
2018-06-20T09:03:57.253Z,26.50
2018-06-20T09:06:34.301Z,26.87
2018-06-20T09:14:59.321Z,27.84
2018-06-20T09:20:34.935Z,27.66
2018-06-20T09:23:04.967Z,28.02
2018-06-20T09:28:15.478Z,28.72
2018-06-20T09:30:48.278Z,30.28
2018-06-20T09:33:18.582Z,30.68
2018-06-20T09:35:47.623Z,30.57
2018-06-20T09:38:17.112Z,29.72
2018-06-20T09:40:46.170Z,31.40
2018-06-20T09:43:19.133Z,32.11
2018-06-20T09:45:48.169Z,33.89
2018-06-20T09:48:18.177Z,34.98
2018-06-20T09:50:48.289Z,34.18
2018-06-20T09:53:18.508Z,35.59
2018-06-20T09:55:47.555Z,36.04
2018-06-20T09:58:24.396Z,35.66
2018-06-20T10:00:58.903Z,35.62
2018-06-20T10:08:46.221Z,35.08
2018-06-20T10:11:15.497Z,35.31
2018-06-20T10:13:44.514Z,36.34
2018-06-20T10:16:13.560Z,34.68
2018-06-20T10:18:47.285Z,33.14
2018-06-20T10:21:25.350Z,34.17
2018-06-20T10:23:54.409Z,37.44
2018-06-20T10:26:24.439Z,38.33
2018-06-20T10:28:53.505Z,37.24
2018-06-20T10:31:23.030Z,34.44
2018-06-20T10:33:52.211Z,34.83
2018-06-20T10:36:21.237Z,36.04
2018-06-20T10:38:50.290Z,38.66
2018-06-20T10:41:19.605Z,39.88
2018-06-20T10:43:48.664Z,38.31
2018-06-20T10:49:18.007Z,40.75
2018-06-20T10:51:47.085Z,39.09
2018-06-20T10:54:16.139Z,39.25
2018-06-20T10:56:48.125Z,37.50
2018-06-20T11:01:59.449Z,41.88
2018-06-20T11:13:19.927Z,39.66
2018-06-20T11:15:49.053Z,39.01
2018-06-20T11:18:20.035Z,38.37
2018-06-20T11:20:49.109Z,40.81
2018-06-20T11:26:02.050Z,41.34
2018-06-20T11:31:09.952Z,41.25
2018-06-20T11:33:39.011Z,40.30
2018-06-20T11:36:10.066Z,40.98
2018-06-20T11:38:39.483Z,42.44
2018-06-20T11:41:08.571Z,43.65
2018-06-20T11:43:37.626Z,43.91
2018-06-20T11:46:06.824Z,44.59
2018-06-20T11:48:35.877Z,45.41
2018-06-20T11:51:04.956Z,44.76
2018-06-20T11:53:34.990Z,45.40
2018-06-20T11:56:04.208Z,44.05
2018-06-20T11:58:34.630Z,41.86
2018-06-20T12:12:57.777Z,45.42
2018-06-20T12:18:27.027Z,45.49
2018-06-20T12:23:38.095Z,44.67
2018-06-20T12:26:16.537Z,46.58
2018-06-20T12:31:26.767Z,44.59
2018-06-20T12:34:06.344Z,45.35
2018-06-20T12:36:40.974Z,46.73
2018-06-20T12:39:09.697Z,44.95
2018-06-20T12:41:38.738Z,45.23
2018-06-20T12:44:13.412Z,46.53
2018-06-20T12:46:52.270Z,46.01
2018-06-20T12:49:21.431Z,45.35
2018-06-20T12:51:50.567Z,45.42
2018-06-20T12:54:23.555Z,44.52
2018-06-20T12:56:52.614Z,45.83
2018-06-20T12:59:23.581Z,45.88
2018-06-20T13:01:52.629Z,43.34
2018-06-20T13:04:22.810Z,45.72
2018-06-20T13:06:51.858Z,45.63
2018-06-20T13:09:20.929Z,47.02
2018-06-20T13:11:50.195Z,45.50
2018-06-20T13:14:21.481Z,46.41
2018-06-20T13:16:50.498Z,46.82
2018-06-20T13:19:22.829Z,46.45
2018-06-20T13:21:51.877Z,45.51
2018-06-20T13:24:21.019Z,43.26
2018-06-20T13:26:50.123Z,44.02
2018-06-20T13:29:19.121Z,45.97
2018-06-20T13:31:48.173Z,43.88
2018-06-20T13:43:06.654Z,46.82
2018-06-20T13:45:37.263Z,46.93
2018-06-20T13:51:04.125Z,45.32
2018-06-20T13:53:36.549Z,42.62
2018-06-20T13:58:46.873Z,45.86
2018-06-20T14:01:19.455Z,44.89
2018-06-20T14:04:00.259Z,44.07
2018-06-20T14:06:33.673Z,44.62
2018-06-20T14:11:43.076Z,46.13
2018-06-20T14:14:12.316Z,43.08
2018-06-20T14:16:41.397Z,45.85
2018-06-20T14:19:10.457Z,45.87
2018-06-20T14:21:39.506Z,45.01
2018-06-20T14:24:08.785Z,44.93
2018-06-20T14:26:37.841Z,42.87
2018-06-20T14:29:06.908Z,44.28
2018-06-20T14:40:41.286Z,46.75
2018-06-20T14:43:10.345Z,45.20
2018-06-20T14:45:39.574Z,43.76
2018-06-20T14:48:08.791Z,43.28
2018-06-20T14:50:37.829Z,46.24
2018-06-20T14:53:06.898Z,44.75
2018-06-20T14:55:36.119Z,44.04
2018-06-20T14:58:05.193Z,42.91
2018-06-20T15:00:34.720Z,41.34
2018-06-20T15:03:06.877Z,44.59
2018-06-20T15:05:36.436Z,43.98
2018-06-20T15:10:41.572Z,47.36
2018-06-20T15:13:14.245Z,46.54
2018-06-20T15:15:43.579Z,45.28
2018-06-20T15:18:12.641Z,45.33
2018-06-20T15:20:41.671Z,42.74
2018-06-20T15:23:10.929Z,43.64
2018-06-20T15:25:40.062Z,45.27
2018-06-20T15:31:15.141Z,46.42
2018-06-20T15:39:36.673Z,47.68
2018-06-20T15:42:07.692Z,47.12
2018-06-20T15:44:36.795Z,46.21
2018-06-20T15:47:08.107Z,45.82
2018-06-20T15:49:37.171Z,45.84
2018-06-20T15:52:06.223Z,46.85
2018-06-20T15:54:35.612Z,45.62
2018-06-20T15:57:08.781Z,46.44
2018-06-20T15:59:38.365Z,46.75
2018-06-20T16:02:11.802Z,46.76
2018-06-20T16:04:41.025Z,45.96
2018-06-20T16:07:15.377Z,46.86
2018-06-20T16:09:44.460Z,46.84
2018-06-20T16:12:17.219Z,46.32
2018-06-20T16:14:47.229Z,47.18
2018-06-20T16:17:16.290Z,45.31
2018-06-20T16:19:45.534Z,46.29
2018-06-20T16:28:14.578Z,45.76
2018-06-20T16:30:43.879Z,39.61
2018-06-20T16:33:12.897Z,37.81
2018-06-20T16:35:41.962Z,36.67
2018-06-20T16:38:12.153Z,36.44
2018-06-20T16:40:41.388Z,35.04
2018-06-20T16:43:11.389Z,34.51
2018-06-20T16:45:40.482Z,34.00
2018-06-20T16:48:09.726Z,33.34
2018-06-20T16:50:38.804Z,32.72
2018-06-20T16:53:07.862Z,31.85
2018-06-20T16:55:36.909Z,31.58
2018-06-20T16:58:06.225Z,31.37
2018-06-20T17:00:35.269Z,31.04
2018-06-20T17:03:04.651Z,29.91
2018-06-20T17:05:34.021Z,29.62
2018-06-20T17:08:04.656Z,30.07
2018-06-20T17:10:35.960Z,29.76
2018-06-20T17:16:05.257Z,29.65
2018-06-20T17:27:46.877Z,29.20
2018-06-20T17:30:15.937Z,28.80
2018-06-20T17:38:01.153Z,28.76
2018-06-20T17:40:30.252Z,28.12
2018-06-20T17:42:59.276Z,27.88
2018-06-20T17:45:28.333Z,28.27
2018-06-20T17:48:03.724Z,27.62
2018-06-20T17:50:34.199Z,27.51
2018-06-20T17:53:03.434Z,27.38
2018-06-20T17:55:32.501Z,27.51
2018-06-20T17:58:02.457Z,27.83
2018-06-20T18:00:31.513Z,27.49
2018-06-20T18:03:00.572Z,27.08
2018-06-20T18:11:32.602Z,26.51
2018-06-20T18:14:05.045Z,26.23
2018-06-20T18:19:34.905Z,26.13
2018-06-20T18:22:06.878Z,25.69
2018-06-20T18:24:39.534Z,25.59
2018-06-20T18:27:13.280Z,25.53
2018-06-20T18:29:46.675Z,25.24
2018-06-20T18:32:19.306Z,25.08
2018-06-20T18:34:53.514Z,24.98
2018-06-20T18:40:02.988Z,25.05
2018-06-20T18:42:36.428Z,25.07
2018-06-20T18:45:08.860Z,24.70
2018-06-20T18:50:18.034Z,24.61
2018-06-20T18:52:50.805Z,24.33
2018-06-20T18:58:00.952Z,24.15
2018-06-20T19:00:38.478Z,23.81
2018-06-20T19:09:07.549Z,23.62
2018-06-20T19:14:15.884Z,23.26
2018-06-20T19:16:50.839Z,23.27
2018-06-20T19:19:25.006Z,22.84
2018-06-20T19:21:57.126Z,22.56
2018-06-20T19:27:04.396Z,22.35
2018-06-20T19:29:36.930Z,21.97
2018-06-20T19:32:09.016Z,21.99
2018-06-20T19:34:42.775Z,21.77
2018-06-20T19:37:15.017Z,21.63
2018-06-20T19:42:22.581Z,21.57
2018-06-20T19:44:54.309Z,21.65
2018-06-20T19:47:26.810Z,21.34
2018-06-20T19:52:36.624Z,21.12
2018-06-20T19:55:10.317Z,20.99
2018-06-20T19:57:43.345Z,20.78
2018-06-20T20:00:15.613Z,20.84
2018-06-20T20:02:52.604Z,20.90
2018-06-20T20:05:24.501Z,20.62
2018-06-20T20:07:55.736Z,20.43
2018-06-20T20:10:26.804Z,20.26
2018-06-20T20:12:58.540Z,20.18
2018-06-20T20:15:31.555Z,20.03
2018-06-20T20:18:03.488Z,20.10
2018-06-20T20:20:35.850Z,19.92
2018-06-20T20:23:08.901Z,19.80
2018-06-20T20:25:42.872Z,19.76
2018-06-20T20:28:14.195Z,19.70
2018-06-20T20:30:46.214Z,19.67
2018-06-20T20:33:18.203Z,19.62
2018-06-20T20:35:51.689Z,19.63
2018-06-20T20:38:23.087Z,19.57
2018-06-20T20:40:56.220Z,19.76
2018-06-20T20:43:29.950Z,19.65
2018-06-20T20:46:04.103Z,19.57
2018-06-20T20:48:35.592Z,19.69
2018-06-20T20:51:07.865Z,19.54
2018-06-20T20:53:39.199Z,19.43
2018-06-20T20:58:47.918Z,19.43
2018-06-20T21:01:20.213Z,19.51
2018-06-20T21:06:28.599Z,19.33
2018-06-20T21:11:37.043Z,19.31
2018-06-20T21:14:10.798Z,19.41
2018-06-20T21:16:43.153Z,19.41
2018-06-20T21:19:16.175Z,19.38
2018-06-20T21:21:48.967Z,19.33
2018-06-20T21:24:20.748Z,19.13
2018-06-20T21:26:51.887Z,18.92
2018-06-20T21:29:24.722Z,18.73
2018-06-20T21:34:34.595Z,18.72
2018-06-20T21:37:07.113Z,18.69
2018-06-20T21:39:40.000Z,18.65
2018-06-20T21:47:26.703Z,18.79
2018-06-20T21:49:58.918Z,18.57
2018-06-20T21:52:31.697Z,18.50
2018-06-20T21:55:03.468Z,18.44
2018-06-20T22:00:08.508Z,18.64
2018-06-20T22:02:40.672Z,18.68
2018-06-20T22:07:53.879Z,18.46
2018-06-20T22:10:27.753Z,18.48
2018-06-20T22:13:00.267Z,18.38
2018-06-20T22:15:33.221Z,18.34
2018-06-20T22:18:07.265Z,18.33
2018-06-20T22:20:40.402Z,18.38
2018-06-20T22:23:13.485Z,18.31
2018-06-20T22:25:47.004Z,18.35
2018-06-20T22:30:55.266Z,18.25
2018-06-20T22:33:29.073Z,18.23
2018-06-20T22:36:01.477Z,18.07
2018-06-20T22:38:35.029Z,18.01
2018-06-20T22:41:06.676Z,17.90
2018-06-20T22:48:52.067Z,18.00
2018-06-20T22:51:24.716Z,18.03
2018-06-20T22:56:35.563Z,18.05
2018-06-20T22:59:08.336Z,18.11
2018-06-20T23:01:41.029Z,17.91
2018-06-20T23:06:52.142Z,17.82
2018-06-20T23:09:25.738Z,17.97
2018-06-20T23:11:56.843Z,17.95
2018-06-20T23:14:30.981Z,17.68
2018-06-20T23:17:05.748Z,17.57
2018-06-20T23:19:38.308Z,17.41
2018-06-20T23:22:10.129Z,17.47
2018-06-20T23:24:42.800Z,17.48
2018-06-20T23:27:16.728Z,17.48
2018-06-20T23:29:49.143Z,17.68
2018-06-20T23:32:22.032Z,17.54
2018-06-20T23:34:54.201Z,17.30
2018-06-20T23:37:27.786Z,17.19
2018-06-20T23:40:00.144Z,17.12
2018-06-20T23:42:33.861Z,17.06
2018-06-20T23:45:05.942Z,17.06
2018-06-20T23:47:39.194Z,16.99
2018-06-20T23:50:10.998Z,16.94
2018-06-20T23:52:44.459Z,17.03
2018-06-20T23:55:16.841Z,16.85
2018-06-20T23:57:48.690Z,16.73
